Time;durP1;ratioP1;P1;durP2;ratioP2;P2;SDS_P1;SDS_P2;PMS_P1;PMS_P2;Temp;Humidity;BMP_temperature;BMP_pressure;BME280_temperature;BME280_humidity;BME280_pressure;Samples;Min_cycle;Max_cycle;Signal;HPM_P1;HPM_P2
2023/09/13 00:01:09;;;;;;;23.38;15.38;;;;;;;26.27;47.60;101049.44;4888140;28;20139;-78
2023/09/13 00:03:41;;;;;;;21.92;15.38;;;;;;;26.26;50.05;101046.94;4904000;28;20470;-79
2023/09/13 00:06:11;;;;;;;20.27;15.68;;;;;;;26.27;47.48;101052.16;4890996;28;20050;-77
2023/09/13 00:08:43;;;;;;;24.70;14.60;;;;;;;26.37;50.11;101046.16;4884157;28;20471;-77
2023/09/13 00:11:12;;;;;;;21.85;16.17;;;;;;;26.43;47.49;101056.09;4937788;28;20136;-77
2023/09/13 00:13:38;;;;;;;30.33;15.82;;;;;;;26.43;47.40;101051.50;4913802;28;20880;-77
2023/09/13 00:16:10;;;;;;;23.13;16.35;;;;;;;26.44;47.20;101052.34;4914980;28;20046;-77
2023/09/13 00:18:47;;;;;;;29.98;16.45;;;;;;;26.22;47.83;101012.00;4907536;28;20476;-78
2023/09/13 00:21:20;;;;;;;20.30;14.80;;;;;;;26.39;48.39;101033.16;4911763;28;20444;-81
2023/09/13 00:23:54;;;;;;;21.92;16.30;;;;;;;26.44;48.42;101047.72;4936926;28;20605;-77
2023/09/13 00:26:27;;;;;;;21.77;16.05;;;;;;;26.66;47.19;101060.03;4933222;28;20299;-78
2023/09/13 00:28:54;;;;;;;23.30;15.57;;;;;;;26.60;47.98;101043.56;4911246;28;20061;-78
2023/09/13 00:31:25;;;;;;;24.00;16.70;;;;;;;26.73;46.64;101049.88;4906437;28;20548;-78
2023/09/13 00:33:55;;;;;;;19.95;15.10;;;;;;;26.84;47.31;101057.22;4923619;28;20408;-77
2023/09/13 00:36:27;;;;;;;23.17;15.52;;;;;;;26.84;47.30;101057.22;4908347;28;20255;-80
2023/09/13 00:39:05;;;;;;;21.80;15.70;;;;;;;26.75;46.76;101056.75;4910943;28;20080;-79
2023/09/13 00:41:32;;;;;;;18.88;15.93;;;;;;;26.67;47.60;101051.59;4933549;28;20038;-79
2023/09/13 00:43:59;;;;;;;20.35;14.60;;;;;;;26.31;47.43;100989.91;4906421;28;20076;-77
2023/09/13 00:46:32;;;;;;;24.63;15.48;;;;;;;26.73;47.04;101050.69;4931458;28;20294;-78
2023/09/13 00:49:11;;;;;;;21.45;16.35;;;;;;;26.78;46.26;101050.00;4909841;28;20422;-80
2023/09/13 00:51:47;;;;;;;21.58;15.48;;;;;;;26.75;47.15;101064.91;4917932;28;20563;-78
2023/09/13 00:54:13;;;;;;;24.73;16.92;;;;;;;26.63;47.08;101044.97;4904383;28;20414;-78
2023/09/13 00:56:41;;;;;;;22.50;16.02;;;;;;;26.72;47.10;101049.00;4930589;28;20618;-78
2023/09/13 00:59:10;;;;;;;23.52;17.08;;;;;;;26.81;47.32;101057.69;4910438;28;20516;-78
2023/09/13 01:01:38;;;;;;;19.50;16.33;;;;;;;26.88;47.84;101052.97;4903782;28;20058;-78
2023/09/13 01:04:13;;;;;;;20.35;16.40;;;;;;;26.58;46.72;101010.28;4917608;28;20295;-79
2023/09/13 01:06:49;;;;;;;21.73;16.40;;;;;;;26.93;46.68;101055.00;4913782;28;20291;-79
2023/09/13 01:09:28;;;;;;;22.38;17.02;;;;;;;26.60;47.45;101032.66;4922673;28;20057;-78
2023/09/13 01:11:59;;;;;;;19.42;16.13;;;;;;;26.73;47.33;101049.88;4946656;28;20251;-77
2023/09/13 01:14:35;;;;;;;21.48;16.02;;;;;;;26.54;47.69;101036.31;4928998;28;20107;-78
2023/09/13 01:17:20;;;;;;;23.05;16.30;;;;;;;26.58;47.75;101053.84;4909002;28;20169;-78
2023/09/13 01:19:52;;;;;;;20.63;16.55;;;;;;;26.62;47.88;101046.03;4911792;28;20058;-79
2023/09/13 01:23:13;;;;;;;23.15;15.20;;;;;;;26.07;47.29;100970.78;4912827;28;20100;-77
2023/09/13 01:25:53;;;;;;;19.52;14.85;;;;;;;26.57;47.47;101057.63;4967233;28;20050;-78
2023/09/13 01:28:40;;;;;;;23.08;15.75;;;;;;;26.53;49.15;101075.50;4941733;28;20116;-76
2023/09/13 01:31:11;;;;;;;19.00;16.35;;;;;;;26.36;48.48;101044.47;4939677;28;20528;-78
2023/09/13 01:33:37;;;;;;;;;;;;;;;26.52;47.39;101068.34;4956630;28;20053;-78
2023/09/13 01:36:07;;;;;;;19.88;16.10;;;;;;;26.49;48.47;101071.53;4966819;28;20393;-77
2023/09/13 01:38:38;;;;;;;20.02;15.80;;;;;;;26.32;47.86;101043.31;4969415;28;20045;-78
2023/09/13 01:41:24;;;;;;;22.42;16.00;;;;;;;26.38;48.56;101045.09;4964688;28;20057;-78
2023/09/13 01:43:55;;;;;;;21.92;15.05;;;;;;;26.44;48.36;101046.91;4971191;28;20058;-78
2023/09/13 01:46:43;;;;;;;27.08;16.58;;;;;;;26.18;48.35;101018.97;4954052;28;20520;-77
2023/09/13 01:49:14;;;;;;;22.25;14.73;;;;;;;26.51;49.80;101050.34;4968859;28;20093;-78
2023/09/13 01:51:50;;;;;;;16.23;13.88;;;;;;;26.50;50.30;101051.41;4956963;28;20053;-78
2023/09/13 01:54:24;;;;;;;19.33;16.35;;;;;;;26.52;50.11;101038.38;4924989;28;20418;-78
2023/09/13 01:56:50;;;;;;;20.02;14.95;;;;;;;26.51;47.93;101050.34;4918741;28;20415;-79
2023/09/13 01:59:17;;;;;;;19.27;13.50;;;;;;;26.10;47.12;100983.94;4943042;28;20146;-78
2023/09/13 02:01:44;;;;;;;18.45;15.38;;;;;;;26.43;48.48;101045.22;4939028;28;20176;-78
2023/09/13 02:04:16;;;;;;;28.10;14.45;;;;;;;26.36;46.51;101041.75;4983354;28;20478;-79
2023/09/13 02:06:48;;;;;;;21.88;15.23;;;;;;;26.33;46.39;101034.88;4970102;28;20397;-77
2023/09/13 02:09:18;;;;;;;18.98;14.13;;;;;;;26.25;46.63;101026.22;4966074;28;20061;-78
2023/09/13 02:11:45;;;;;;;20.40;14.27;;;;;;;26.22;46.20;101028.34;4954107;28;20068;-78
2023/09/13 02:14:16;;;;;;;19.88;13.85;;;;;;;26.25;45.88;101037.94;4942266;28;20054;-78
2023/09/13 02:16:42;;;;;;;17.33;13.88;;;;;;;26.21;46.96;101043.03;4954783;28;20049;-79
2023/09/13 02:19:14;;;;;;;18.27;14.43;;;;;;;26.17;46.24;101030.09;4945903;28;20053;-79
2023/09/13 02:21:42;;;;;;;22.15;14.45;;;;;;;26.13;46.46;101027.00;4949543;28;20124;-77
2023/09/13 02:24:08;;;;;;;20.17;14.57;;;;;;;25.96;46.62;101006.94;4974509;28;20050;-77
2023/09/13 02:26:36;;;;;;;17.35;13.77;;;;;;;25.61;47.03;100944.16;4944137;28;20112;-79
2023/09/13 02:29:03;;;;;;;19.08;14.35;;;;;;;26.14;46.17;101027.81;4949539;28;20279;-77
2023/09/13 02:31:34;;;;;;;18.27;13.85;;;;;;;26.12;47.51;101016.31;4944494;28;20046;-78
2023/09/13 02:34:04;;;;;;;17.55;13.40;;;;;;;26.19;47.45;101015.22;4963957;28;20077;-78
2023/09/13 02:36:36;;;;;;;18.70;13.70;;;;;;;26.22;49.27;101009.28;4933539;28;20804;-77
2023/09/13 02:39:03;;;;;;;19.13;15.10;;;;;;;25.98;49.60;100959.41;4900307;28;20152;-78
2023/09/13 02:41:30;;;;;;;18.90;14.57;;;;;;;26.08;47.43;100991.50;4944117;28;20052;-78
2023/09/13 02:44:02;;;;;;;20.15;13.88;;;;;;;26.08;45.47;100999.66;4926238;28;20050;-78
2023/09/13 02:46:36;;;;;;;18.75;13.05;;;;;;;25.79;46.48;100953.13;4934612;28;20504;-78
2023/09/13 02:49:12;;;;;;;19.13;12.95;;;;;;;26.05;44.42;101007.44;4955066;28;20431;-76
2023/09/13 02:51:47;;;;;;;16.80;13.07;;;;;;;25.67;44.46;100952.22;4946485;28;20223;-77
2023/09/13 02:54:14;;;;;;;17.65;12.90;;;;;;;26.07;45.68;101025.22;4930786;28;20049;-78
2023/09/13 02:56:45;;;;;;;14.85;12.73;;;;;;;25.95;46.99;101000.66;4924356;28;20042;-78
2023/09/13 02:59:12;;;;;;;16.80;13.05;;;;;;;26.10;45.90;101030.19;4940357;28;20444;-78
2023/09/13 03:01:44;;;;;;;16.65;13.05;;;;;;;26.06;48.11;101018.09;4920153;28;20155;-78
2023/09/13 03:04:12;;;;;;;22.13;13.52;;;;;;;26.03;45.54;101024.00;4946268;28;20057;-78
2023/09/13 03:06:39;;;;;;;17.33;12.98;;;;;;;25.76;47.74;100969.06;4936527;28;20362;-78
2023/09/13 03:09:07;;;;;;;16.98;13.85;;;;;;;25.92;46.59;101008.44;4954835;28;20466;-76
2023/09/13 03:11:37;;;;;;;18.92;13.70;;;;;;;25.89;45.02;101022.50;4965688;28;20298;-77
2023/09/13 03:14:05;;;;;;;16.75;13.82;;;;;;;25.58;45.77;100968.03;4953105;28;20467;-78
2023/09/13 03:16:34;;;;;;;16.48;14.20;;;;;;;25.74;45.67;101006.53;4947134;28;21040;-78
2023/09/13 03:19:03;;;;;;;15.75;13.55;;;;;;;25.55;45.47;100978.50;4930601;28;20160;-77
2023/09/13 03:21:35;;;;;;;16.40;13.18;;;;;;;25.67;45.47;101008.50;4952153;28;20045;-77
2023/09/13 03:24:08;;;;;;;18.90;13.50;;;;;;;25.37;45.93;100974.75;4948330;28;20215;-77
2023/09/13 03:26:38;;;;;;;24.23;14.27;;;;;;;25.64;45.96;101017.94;4949442;28;20586;-77
2023/09/13 03:29:05;;;;;;;16.98;13.68;;;;;;;25.42;46.20;100989.53;4934762;28;20054;-78
2023/09/13 03:31:32;;;;;;;16.42;13.23;;;;;;;25.24;46.18;100983.00;4930122;28;20311;-77
2023/09/13 03:34:03;;;;;;;18.05;13.60;;;;;;;25.50;46.66;101030.00;4947981;28;20493;-78
2023/09/13 03:36:35;;;;;;;18.30;12.88;;;;;;;25.38;46.49;101032.63;4966260;28;20394;-78
2023/09/13 03:39:06;;;;;;;18.17;13.57;;;;;;;25.16;46.68;100996.88;4968100;28;20058;-76
2023/09/13 03:41:33;;;;;;;23.73;13.70;;;;;;;25.20;46.55;101008.97;4971040;28;20058;-78
2023/09/13 03:44:05;;;;;;;20.65;14.45;;;;;;;25.27;46.88;101022.47;4940268;28;20141;-78
2023/09/13 03:46:32;;;;;;;18.95;14.07;;;;;;;25.19;47.25;101011.91;4947558;28;20383;-77
2023/09/13 03:48:59;;;;;;;17.23;14.65;;;;;;;25.23;48.63;101019.41;4948196;28;20555;-76
2023/09/13 03:51:26;;;;;;;21.35;15.82;;;;;;;25.30;47.36;101024.78;4949951;28;20266;-76
2023/09/13 03:53:58;;;;;;;17.88;14.32;;;;;;;25.30;47.09;101031.03;4967310;28;20362;-77
2023/09/13 03:56:28;;;;;;;22.55;14.35;;;;;;;25.20;47.67;100998.13;4945849;28;20058;-79
2023/09/13 03:58:58;;;;;;;22.45;13.95;;;;;;;25.32;47.41;101012.63;4953929;28;20521;-78
2023/09/13 04:01:29;;;;;;;17.50;12.90;;;;;;;25.15;47.54;100997.94;4949447;28;20258;-77
2023/09/13 04:03:55;;;;;;;19.67;14.52;;;;;;;25.18;49.44;101016.53;4953431;28;20402;-79
2023/09/13 04:06:26;;;;;;;16.67;14.38;;;;;;;25.23;48.02;101015.84;4950280;28;20485;-79
2023/09/13 04:08:55;;;;;;;18.27;14.68;;;;;;;24.99;47.77;100983.00;4933262;28;20049;-79
2023/09/13 04:11:22;;;;;;;15.60;13.27;;;;;;;25.14;47.99;101015.25;4960749;28;20520;-80
2023/09/13 04:13:49;;;;;;;19.33;14.50;;;;;;;25.10;48.43;101006.75;4953929;28;20045;-79
2023/09/13 04:16:19;;;;;;;24.02;14.45;;;;;;;24.98;48.23;100994.09;4954228;28;20056;-79
2023/09/13 04:18:49;;;;;;;25.40;14.55;;;;;;;25.05;48.58;101012.00;4964124;28;20360;-80
2023/09/13 04:21:17;;;;;;;;;;;;;;;24.99;47.75;101018.31;4965562;28;20571;-78
2023/09/13 04:23:44;;;;;;;19.40;14.60;;;;;;;25.01;47.62;101018.13;4956510;28;19925;-78
2023/09/13 04:26:13;;;;;;;17.70;13.73;;;;;;;24.99;47.89;101017.50;4954433;28;20058;-79
2023/09/13 04:28:41;;;;;;;23.52;15.50;;;;;;;25.03;47.74;101018.72;4961003;28;20409;-79
2023/09/13 04:31:08;;;;;;;20.30;15.10;;;;;;;24.99;47.84;101018.31;4957790;28;20301;-79
2023/09/13 04:33:53;;;;;;;21.65;15.15;;;;;;;24.99;47.77;101017.50;4955153;28;20147;-78
2023/09/13 04:36:23;;;;;;;21.27;15.07;;;;;;;25.02;48.28;101022.47;4926563;28;20301;-78
2023/09/13 04:38:50;;;;;;;23.98;14.45;;;;;;;24.72;48.34;100985.13;4955972;28;20041;-78
2023/09/13 04:41:17;;;;;;;19.80;14.75;;;;;;;24.84;48.24;101017.81;4956289;28;20062;-79
2023/09/13 04:43:45;;;;;;;23.08;15.13;;;;;;;24.94;48.07;101038.00;4942899;28;20123;-78
2023/09/13 04:46:13;;;;;;;20.40;14.48;;;;;;;24.88;48.36;101030.75;4952374;28;20137;-79
2023/09/13 04:48:43;;;;;;;24.45;13.65;;;;;;;25.02;48.59;101045.03;4949234;28;20046;-78
2023/09/13 04:51:10;;;;;;;21.92;14.13;;;;;;;24.91;49.01;101015.91;4956087;28;20606;-77
2023/09/13 04:53:37;;;;;;;20.98;14.18;;;;;;;25.09;48.29;101047.69;4946771;28;20053;-78
2023/09/13 04:56:04;;;;;;;20.00;15.05;;;;;;;25.03;47.40;101037.75;4956421;28;20523;-79
2023/09/13 04:58:34;;;;;;;18.25;12.98;;;;;;;24.72;49.44;100990.56;4942704;28;20250;-78
2023/09/13 05:01:16;;;;;;;18.42;13.77;;;;;;;25.27;48.68;101064.09;4953343;28;20268;-78
2023/09/13 05:03:45;;;;;;;20.48;14.60;;;;;;;25.34;49.01;101070.31;4954983;28;20541;-79
2023/09/13 05:06:13;;;;;;;21.75;14.00;;;;;;;25.27;47.32;101064.09;4954183;28;20460;-78
2023/09/13 05:08:40;;;;;;;19.42;13.82;;;;;;;25.44;48.88;101079.81;4955465;28;20066;-78
2023/09/13 05:11:12;;;;;;;19.60;12.88;;;;;;;25.46;46.55;101078.53;4950058;28;20058;-79
2023/09/13 05:13:40;;;;;;;20.65;14.65;;;;;;;25.57;48.20;101085.97;4945680;28;20293;-78
2023/09/13 05:16:07;;;;;;;17.60;12.73;;;;;;;25.56;48.31;101078.06;4950526;28;20085;-79
2023/09/13 05:18:37;;;;;;;17.60;14.15;;;;;;;25.43;49.05;101059.13;4952646;28;20085;-80
2023/09/13 05:21:07;;;;;;;18.23;13.90;;;;;;;25.43;47.57;101061.84;4941521;28;20413;-78
2023/09/13 05:23:35;;;;;;;19.17;13.90;;;;;;;25.65;46.34;101098.44;4975722;28;20161;-78
2023/09/13 05:26:02;;;;;;;19.23;12.95;;;;;;;25.65;45.91;101090.28;4958565;28;20081;-78
2023/09/13 05:28:33;;;;;;;17.20;13.75;;;;;;;25.23;46.04;101024.84;4953674;28;20137;-78
2023/09/13 05:31:00;;;;;;;20.20;12.98;;;;;;;25.69;45.76;101105.09;4945452;28;20564;-78
2023/09/13 05:33:27;;;;;;;19.42;12.85;;;;;;;25.61;45.81;101101.81;4971325;28;20069;-78
2023/09/13 05:36:00;;;;;;;17.77;13.82;;;;;;;25.50;46.04;101090.63;4952631;28;20053;-78
2023/09/13 05:38:31;;;;;;;20.58;13.70;;;;;;;25.66;46.67;101121.03;4956146;28;20108;-78
2023/09/13 05:40:58;;;;;;;22.45;14.63;;;;;;;25.68;46.83;101124.34;4948450;28;20202;-78
2023/09/13 05:43:28;;;;;;;18.45;13.68;;;;;;;25.53;47.04;101102.94;4959521;28;20133;-78
2023/09/13 05:45:55;;;;;;;16.38;13.60;;;;;;;25.76;48.81;101133.06;4958541;28;20125;-77
2023/09/13 05:48:22;;;;;;;17.67;13.43;;;;;;;25.80;47.96;101139.72;4930717;28;20056;-79
2023/09/13 05:50:54;;;;;;;17.48;14.15;;;;;;;25.64;47.28;101104.94;4955360;28;20046;-80
2023/09/13 05:53:22;;;;;;;23.80;14.10;;;;;;;25.86;47.02;101138.00;4977788;28;20049;-79
2023/09/13 05:55:50;;;;;;;20.83;14.25;;;;;;;25.55;48.64;101084.53;4948360;28;20054;-80
2023/09/13 05:58:17;;;;;;;18.95;14.50;;;;;;;25.95;47.40;101135.84;4942837;28;20636;-81
2023/09/13 06:00:55;;;;;;;23.50;16.70;;;;;;;25.80;46.66;101115.25;4955786;28;20046;-79
2023/09/13 06:03:30;;;;;;;15.38;13.57;;;;;;;25.80;48.77;101112.53;4930466;28;20532;-79
2023/09/13 06:06:03;;;;;;;22.40;13.68;;;;;;;25.82;47.48;101116.88;4954129;28;20534;-78
2023/09/13 06:08:34;;;;;;;19.23;14.07;;;;;;;25.87;47.63;101127.94;4929818;28;20081;-79
2023/09/13 06:11:01;;;;;;;18.80;14.07;;;;;;;25.74;47.50;101124.28;4951470;28;20609;-78
2023/09/13 06:13:30;;;;;;;24.83;15.57;;;;;;;25.67;47.22;101112.63;4958054;28;20413;-80
2023/09/13 06:15:57;;;;;;;20.83;14.38;;;;;;;25.65;47.62;101103.88;4958864;28;20552;-78
2023/09/13 06:18:24;;;;;;;20.00;15.10;;;;;;;25.76;46.99;101121.34;4962965;28;20695;-79
2023/09/13 06:20:54;;;;;;;22.08;13.50;;;;;;;25.68;50.42;101092.56;4972567;28;20062;-79
2023/09/13 06:23:39;;;;;;;17.73;13.90;;;;;;;25.91;49.42;101131.91;4959971;28;20560;-78
2023/09/13 06:26:07;;;;;;;22.02;12.98;;;;;;;26.04;50.75;101134.47;4958843;28;20045;-78
2023/09/13 06:28:35;;;;;;;24.80;14.15;;;;;;;26.09;50.83;101137.31;4946481;28;20512;-79
2023/09/13 06:31:02;;;;;;;22.33;15.52;;;;;;;25.73;50.70;101095.44;4954118;28;20335;-79
2023/09/13 06:33:35;;;;;;;20.85;14.45;;;;;;;25.86;50.35;101139.91;4945650;28;20058;-80
2023/09/13 06:36:09;;;;;;;24.58;14.95;;;;;;;25.58;49.63;101103.09;4944957;28;20056;-78
2023/09/13 06:38:37;;;;;;;18.30;13.38;;;;;;;25.71;47.78;101141.06;4968985;28;20053;-78
2023/09/13 06:41:05;;;;;;;16.00;13.48;;;;;;;25.71;48.67;101140.22;4957582;28;20066;-78
2023/09/13 06:43:31;;;;;;;16.05;12.13;;;;;;;25.85;50.14;101157.22;4958590;28;20842;-78
2023/09/13 06:46:18;;;;;;;24.85;13.52;;;;;;;25.83;47.43;101167.50;4954039;28;20058;-79
2023/09/13 06:48:46;;;;;;;20.30;13.27;;;;;;;25.37;48.42;101097.03;4945799;28;20465;-78
2023/09/13 06:51:13;;;;;;;15.50;13.18;;;;;;;25.76;47.81;101156.69;4958174;28;20589;-78
2023/09/13 06:53:43;;;;;;;22.85;12.40;;;;;;;25.48;47.16;101108.22;4951490;28;20050;-78
2023/09/13 06:56:13;;;;;;;19.75;13.77;;;;;;;25.63;48.01;101138.59;4957048;28;20556;-80
2023/09/13 06:58:43;;;;;;;18.90;13.43;;;;;;;25.92;48.99;101188.75;4961465;28;20048;-78
2023/09/13 07:01:19;;;;;;;17.73;13.27;;;;;;;25.95;47.02;101192.94;4942238;28;20421;-78
2023/09/13 07:04:15;;;;;;;18.23;12.68;;;;;;;25.97;48.03;101209.84;4931439;28;20074;-78
2023/09/13 07:06:48;;;;;;;20.25;13.02;;;;;;;26.05;49.59;101197.88;4961238;28;20133;-77
2023/09/13 07:09:15;;;;;;;15.45;12.23;;;;;;;26.27;50.27;101215.44;4946033;28;20057;-77
2023/09/13 07:11:41;;;;;;;19.52;13.15;;;;;;;26.23;48.73;101220.47;4952227;28;20058;-78
2023/09/13 07:14:08;;;;;;;22.65;13.20;;;;;;;26.21;45.30;101211.72;4982516;28;20129;-79
2023/09/13 07:16:35;;;;;;;17.58;12.43;;;;;;;26.40;44.88;101219.88;4944388;28;20159;-79
2023/09/13 07:19:02;;;;;;;18.63;13.13;;;;;;;26.36;47.17;101202.34;4954525;28;20722;-78
2023/09/13 07:21:33;;;;;;;14.57;11.48;;;;;;;26.45;47.41;101220.03;4953311;28;20046;-79
2023/09/13 07:23:59;;;;;;;28.05;13.05;;;;;;;26.22;46.50;101191.63;4952219;28;20074;-77
2023/09/13 07:26:30;;;;;;;18.83;12.85;;;;;;;26.05;46.71;101163.34;4951391;28;20131;-76
2023/09/13 07:28:58;;;;;;;18.00;11.45;;;;;;;26.27;43.70;101187.41;4952302;28;20056;-79
2023/09/13 07:31:25;;;;;;;16.98;11.52;;;;;;;26.41;44.57;101235.19;4933815;28;20231;-78
2023/09/13 07:33:52;;;;;;;18.52;12.50;;;;;;;26.36;44.61;101235.84;4957041;28;20485;-78
2023/09/13 07:36:22;;;;;;;15.05;12.10;;;;;;;26.20;45.48;101214.66;4950053;28;20737;-77
2023/09/13 07:38:49;;;;;;;15.07;12.30;;;;;;;26.25;45.26;101233.03;4946853;28;20054;-77
2023/09/13 07:41:16;;;;;;;17.42;12.30;;;;;;;26.20;48.43;101229.09;4976652;28;20057;-78
2023/09/13 07:43:42;;;;;;;17.23;12.38;;;;;;;25.78;45.39;101158.13;4958044;28;20049;-76
2023/09/13 07:46:09;;;;;;;32.45;12.75;;;;;;;26.32;47.14;101252.88;4963843;28;20112;-78
2023/09/13 07:48:36;;;;;;;17.35;12.40;;;;;;;26.32;47.91;101236.53;4940518;28;20056;-78
2023/09/13 07:51:05;;;;;;;14.90;12.50;;;;;;;25.81;49.99;101173.16;4955826;28;20050;-77
2023/09/13 07:53:38;;;;;;;20.50;12.88;;;;;;;26.04;51.73;101226.13;4977174;28;20107;-78
2023/09/13 07:56:07;;;;;;;30.65;15.27;;;;;;;25.87;53.91;101218.53;4957895;28;20485;-77
2023/09/13 07:58:34;;;;;;;31.13;16.55;;;;;;;25.64;54.76;101196.53;4945512;28;20586;-76
2023/09/13 08:01:02;;;;;;;23.67;17.08;;;;;;;25.46;55.81;101203.56;4952430;28;20042;-77
2023/09/13 08:03:29;;;;;;;16.13;12.73;;;;;;;25.43;54.18;101190.41;4959717;28;20050;-78
2023/09/13 08:06:03;;;;;;;22.35;15.55;;;;;;;25.50;56.50;101193.91;4940421;28;20538;-77
2023/09/13 08:08:33;;;;;;;21.20;14.55;;;;;;;25.48;55.91;101195.19;4935619;28;20060;-77
2023/09/13 08:11:04;;;;;;;18.98;14.10;;;;;;;25.54;57.12;101216.06;4955021;28;20050;-79
2023/09/13 08:13:32;;;;;;;21.52;14.45;;;;;;;25.40;57.66;101204.47;4956522;28;20061;-79
2023/09/13 08:15:58;;;;;;;20.60;14.95;;;;;;;25.18;55.47;101156.97;4950160;28;20089;-77
2023/09/13 08:18:25;;;;;;;19.95;12.52;;;;;;;24.97;55.72;101112.75;4958822;28;20448;-78
2023/09/13 08:20:52;;;;;;;18.52;13.55;;;;;;;25.44;54.71;101178.50;4952591;28;20141;-78
2023/09/13 08:23:19;;;;;;;16.52;12.48;;;;;;;25.33;54.60;101166.44;4966504;28;20365;-77
2023/09/13 08:25:46;;;;;;;19.48;13.68;;;;;;;25.49;56.44;101199.59;4936439;28;20072;-76
2023/09/13 08:28:13;;;;;;;16.15;12.23;;;;;;;25.54;54.81;101203.31;4960312;28;20053;-78
2023/09/13 08:30:40;;;;;;;21.25;14.25;;;;;;;25.70;52.85;101215.50;4960834;28;20038;-80
2023/09/13 08:33:10;;;;;;;18.92;14.30;;;;;;;25.53;53.84;101208.94;4969664;28;20079;-77
2023/09/13 08:35:37;;;;;;;17.13;13.23;;;;;;;25.61;54.38;101197.81;4955499;28;20050;-79
2023/09/13 08:38:07;;;;;;;19.92;14.20;;;;;;;25.65;55.25;101188.16;4933777;28;20437;-75
2023/09/13 08:40:45;;;;;;;21.55;14.35;;;;;;;25.59;56.97;101205.38;4945069;28;20089;-79
2023/09/13 08:43:14;;;;;;;22.67;14.15;;;;;;;25.32;55.91;101197.41;4956391;28;20050;-78
2023/09/13 08:45:41;;;;;;;23.88;15.55;;;;;;;25.35;56.02;101213.25;4979252;28;20646;-79
2023/09/13 08:48:11;;;;;;;21.45;15.48;;;;;;;25.29;55.57;101208.72;4955129;28;20108;-79
2023/09/13 08:50:42;;;;;;;18.95;14.75;;;;;;;25.32;55.33;101221.03;4957820;28;20050;-79
2023/09/13 08:53:13;;;;;;;22.38;15.77;;;;;;;25.20;56.26;101201.88;4951233;28;20315;-81
2023/09/13 08:55:41;;;;;;;19.70;14.68;;;;;;;25.33;56.16;101237.09;4962376;28;20553;-80
2023/09/13 08:58:10;;;;;;;21.27;12.68;;;;;;;25.24;55.38;101232.97;4959716;28;20056;-79
2023/09/13 09:00:41;;;;;;;21.50;14.35;;;;;;;25.38;55.75;101253.59;4958839;28;20073;-79
2023/09/13 09:03:12;;;;;;;19.30;13.20;;;;;;;25.25;53.81;101234.66;4940986;28;20575;-79
2023/09/13 09:05:44;;;;;;;16.08;12.18;;;;;;;25.38;54.86;101226.41;4952818;28;20050;-80
2023/09/13 09:08:13;;;;;;;16.85;11.93;;;;;;;25.58;52.75;101250.75;4952036;28;20548;-78
2023/09/13 09:10:43;;;;;;;23.60;13.52;;;;;;;25.63;53.21;101251.97;4952632;28;20478;-77
2023/09/13 09:13:11;;;;;;;20.95;12.13;;;;;;;25.55;53.30;101223.16;4973548;28;20054;-78
2023/09/13 09:15:43;;;;;;;17.27;12.27;;;;;;;25.53;53.28;101203.50;4952974;28;20049;-78
2023/09/13 09:18:13;;;;;;;19.23;12.48;;;;;;;25.47;53.63;101207.13;4927017;28;20288;-80
2023/09/13 09:20:43;;;;;;;25.83;13.05;;;;;;;25.55;53.94;101223.97;4965015;28;20049;-78
2023/09/13 09:23:11;;;;;;;16.52;12.50;;;;;;;25.65;53.62;101231.66;4957329;28;20417;-79
2023/09/13 09:25:45;;;;;;;19.27;12.63;;;;;;;25.66;52.34;101218.91;4942989;28;20080;-79
2023/09/13 09:28:16;;;;;;;37.47;14.52;;;;;;;25.85;51.45;101236.09;4972563;28;20283;-79
2023/09/13 09:30:46;;;;;;;34.08;13.27;;;;;;;25.84;52.24;101237.16;4970251;28;20240;-79
2023/09/13 09:33:24;;;;;;;15.30;11.60;;;;;;;25.85;53.51;101244.25;4969402;28;20120;-78
2023/09/13 09:35:56;;;;;;;16.52;12.15;;;;;;;25.88;53.68;101216.66;4951952;28;20843;-79
2023/09/13 09:38:26;;;;;;;44.63;15.00;;;;;;;25.75;53.48;101184.94;4950085;28;20057;-77
2023/09/13 09:40:59;;;;;;;17.83;13.00;;;;;;;26.08;52.74;101211.03;4957177;28;20392;-78
2023/09/13 09:43:28;;;;;;;21.55;13.13;;;;;;;26.12;52.12;101202.19;4952108;28;20128;-78
2023/09/13 09:45:55;;;;;;;28.77;15.10;;;;;;;26.12;51.20;101191.31;4978736;28;20103;-77
2023/09/13 09:48:26;;;;;;;24.17;13.48;;;;;;;26.33;51.44;101211.78;4955459;28;20346;-81
2023/09/13 09:50:54;;;;;;;18.90;12.70;;;;;;;26.31;51.75;101205.75;4937029;28;20514;-78
2023/09/13 09:53:25;;;;;;;22.52;12.60;;;;;;;26.61;50.15;101238.53;4946128;28;20484;-78
2023/09/13 09:55:54;;;;;;;;;;;;;;;26.67;49.11;101247.66;4976197;28;20074;-79
2023/09/13 09:58:22;;;;;;;22.52;13.02;;;;;;;26.57;49.98;101228.31;4945391;28;19956;-77
2023/09/13 10:00:51;;;;;;;25.50;12.68;;;;;;;26.79;49.42;101255.91;4950407;28;20080;-78
2023/09/13 10:03:21;;;;;;;19.88;11.80;;;;;;;26.82;49.52;101245.41;4943974;28;20061;-79
2023/09/13 10:06:10;;;;;;;22.95;12.65;;;;;;;26.41;49.76;101184.28;4937783;28;20049;-79
2023/09/13 10:08:45;;;;;;;19.95;11.23;;;;;;;26.82;49.89;101215.44;4959974;28;20053;-80
2023/09/13 10:11:19;;;;;;;19.10;11.65;;;;;;;26.87;49.86;101220.22;4953597;28;20305;-80
2023/09/13 10:13:46;;;;;;;16.90;11.98;;;;;;;26.97;49.91;101225.94;4945181;28;20456;-79
2023/09/13 10:16:15;;;;;;;16.55;11.85;;;;;;;26.29;49.91;101103.59;4949281;28;20504;-80
2023/09/13 10:18:54;;;;;;;18.90;11.40;;;;;;;27.03;49.87;101211.38;4951064;28;20053;-77
2023/09/13 10:21:32;;;;;;;15.15;10.13;;;;;;;27.17;49.43;101220.19;4942602;28;20078;-79
2023/09/13 10:24:06;;;;;;;15.38;11.80;;;;;;;27.03;49.84;101230.44;4948456;28;20072;-77
2023/09/13 10:26:34;;;;;;;17.52;11.43;;;;;;;27.10;49.86;101235.00;4976327;28;20104;-77
2023/09/13 10:29:10;;;;;;;17.52;10.60;;;;;;;26.98;49.02;101224.84;4926374;28;20137;-77
2023/09/13 10:31:44;;;;;;;21.23;12.27;;;;;;;27.02;49.88;101239.69;4952477;28;20046;-78
2023/09/13 10:34:18;;;;;;;15.57;10.77;;;;;;;26.91;49.69;101226.00;4968034;28;20072;-78
2023/09/13 10:36:52;;;;;;;24.10;10.90;;;;;;;26.95;49.94;101238.13;4956576;28;20046;-81
2023/09/13 10:39:33;;;;;;;16.05;10.63;;;;;;;26.88;50.26;101221.03;4954628;28;20107;-80
2023/09/13 10:42:07;;;;;;;13.75;9.88;;;;;;;27.02;48.25;101238.88;4956341;28;20509;-80
2023/09/13 10:44:42;;;;;;;16.80;11.15;;;;;;;26.98;49.16;101249.38;4954933;28;20052;-80
2023/09/13 10:47:19;;;;;;;25.90;10.57;;;;;;;26.97;49.10;101239.56;4928284;28;20239;-78
2023/09/13 10:49:52;;;;;;;18.00;12.48;;;;;;;26.81;49.73;101215.66;4920783;28;20497;-80
2023/09/13 10:52:23;;;;;;;19.95;10.25;;;;;;;27.01;48.18;101240.72;4945942;28;20049;-80
2023/09/13 10:54:51;;;;;;;16.60;11.50;;;;;;;27.12;47.64;101254.66;4939266;28;20082;-79
2023/09/13 10:57:19;;;;;;;17.35;10.75;;;;;;;27.04;48.43;101247.63;4945213;28;20396;-77
2023/09/13 10:59:52;;;;;;;14.90;10.02;;;;;;;27.05;48.24;101255.56;4966891;28;20050;-78
2023/09/13 11:02:29;;;;;;;19.33;10.07;;;;;;;26.87;47.64;101222.94;4968821;28;20691;-79
2023/09/13 11:05:01;;;;;;;14.23;10.18;;;;;;;27.08;47.35;101243.38;4921937;28;20058;-78
2023/09/13 11:07:48;;;;;;;16.58;10.75;;;;;;;27.24;45.29;101245.50;4938038;28;20058;-80
2023/09/13 11:10:21;;;;;;;15.68;10.02;;;;;;;27.23;45.49;101251.16;4953595;28;20066;-78
2023/09/13 11:12:50;;;;;;;18.27;10.30;;;;;;;27.08;46.97;101216.97;4949551;28;20506;-77
2023/09/13 11:15:28;;;;;;;13.27;9.87;;;;;;;27.25;48.01;101233.53;4919324;28;20319;-79
2023/09/13 11:18:15;;;;;;;14.75;9.68;;;;;;;27.21;46.14;101209.69;4905862;28;20805;-79
2023/09/13 11:20:48;;;;;;;13.60;9.25;;;;;;;27.31;45.70;101204.53;4918851;28;20050;-79
2023/09/13 11:23:20;;;;;;;17.63;10.35;;;;;;;27.35;46.67;101202.97;4934320;28;20117;-78
2023/09/13 11:26:04;;;;;;;14.48;9.40;;;;;;;27.78;46.37;101231.88;4931093;28;20093;-79